Time;durP1;ratioP1;P1;durP2;ratioP2;P2;SDS_P1;SDS_P2;PMS_P1;PMS_P2;Temp;Humidity;BMP_temperature;BMP_pressure;BME280_temperature;BME280_humidity;BME280_pressure;Samples;Min_cycle;Max_cycle;Signal;HPM_P1;HPM_P2
2021/04/03 00:02:16;;;;;;;13.53;6.53;;;;;;;5.02;89.41;96523.47;5009738;28;20240;-72
2021/04/03 00:04:42;;;;;;;14.80;6.43;;;;;;;4.98;89.90;96527.31;5007471;28;20218;-72
2021/04/03 00:07:08;;;;;;;12.20;6.50;;;;;;;4.97;91.45;96525.66;5007433;28;20211;-72
2021/04/03 00:09:34;;;;;;;14.70;6.17;;;;;;;4.83;92.50;96532.06;5010734;28;20765;-74
2021/04/03 00:12:01;;;;;;;11.70;6.20;;;;;;;4.84;93.73;96535.53;5010830;28;20663;-73
2021/04/03 00:14:27;;;;;;;11.10;6.10;;;;;;;4.82;92.25;96535.66;5007981;28;20233;-73
2021/04/03 00:16:53;;;;;;;14.27;6.57;;;;;;;5.04;91.54;96537.19;5006687;28;20269;-75
2021/04/03 00:19:19;;;;;;;14.20;6.50;;;;;;;4.97;91.64;96536.91;5007417;28;20676;-74
2021/04/03 00:21:45;;;;;;;14.43;6.63;;;;;;;5.00;90.43;96530.59;5007662;28;20203;-74
2021/04/03 00:24:11;;;;;;;14.53;6.03;;;;;;;4.95;90.54;96538.00;5007336;28;20579;-75
2021/04/03 00:26:37;;;;;;;13.07;5.60;;;;;;;4.97;90.02;96543.94;5006783;28;20288;-73
2021/04/03 00:29:04;;;;;;;13.43;6.07;;;;;;;5.01;92.01;96546.13;5007067;28;20582;-74
2021/04/03 00:31:30;;;;;;;15.40;7.13;;;;;;;4.86;91.69;96542.25;5010108;28;20603;-74
2021/04/03 00:33:56;;;;;;;15.50;6.10;;;;;;;4.79;91.48;96547.34;5010352;28;20321;-74
2021/04/03 00:36:23;;;;;;;13.47;6.10;;;;;;;4.73;92.47;96559.13;5008006;28;20229;-74
2021/04/03 00:38:49;;;;;;;15.77;6.63;;;;;;;4.76;92.78;96553.66;5006949;28;21220;-72
2021/04/03 00:41:15;;;;;;;13.70;6.10;;;;;;;4.77;91.82;96560.50;5007859;28;20203;-72
2021/04/03 00:43:41;;;;;;;13.23;5.93;;;;;;;4.79;91.31;96563.81;5009805;28;20213;-73
2021/04/03 00:46:08;;;;;;;14.30;7.03;;;;;;;4.71;92.67;96555.84;5009410;28;20202;-74
2021/04/03 00:48:34;;;;;;;16.17;6.27;;;;;;;4.73;92.87;96547.88;5010517;28;20208;-74
2021/04/03 00:51:01;;;;;;;13.13;5.83;;;;;;;4.72;90.53;96561.88;5009746;28;20201;-74
2021/04/03 00:53:31;;;;;;;15.57;5.60;;;;;;;4.77;89.14;96562.31;5015013;28;20289;-73
2021/04/03 00:55:57;;;;;;;10.13;5.83;;;;;;;4.83;88.88;96555.56;4994923;28;20227;-74
2021/04/03 00:58:23;;;;;;;11.87;6.00;;;;;;;4.80;87.14;96560.25;5000772;28;20206;-73
2021/04/03 01:00:50;;;;;;;14.87;6.00;;;;;;;4.67;89.23;96564.06;5009666;28;20202;-74
2021/04/03 01:03:17;;;;;;;20.33;6.40;;;;;;;4.93;86.48;96553.81;5008215;28;20206;-74
2021/04/03 01:05:43;;;;;;;11.90;4.80;;;;;;;4.83;84.91;96560.78;5009100;28;20228;-74
2021/04/03 01:08:11;;;;;;;13.33;5.87;;;;;;;4.94;84.15;96554.66;5006260;28;20237;-74
2021/04/03 01:10:40;;;;;;;10.07;4.53;;;;;;;5.00;82.66;96560.16;5006219;28;20297;-74
2021/04/03 01:13:20;;;;;;;10.30;4.97;;;;;;;4.78;84.11;96566.56;4998838;28;20555;-75
2021/04/03 01:15:53;;;;;;;10.77;5.10;;;;;;;4.90;82.79;96572.38;5005131;28;20237;-73
2021/04/03 01:18:29;;;;;;;11.87;5.07;;;;;;;4.86;84.52;96576.22;5007899;28;20209;-72
2021/04/03 01:21:01;;;;;;;14.20;5.07;;;;;;;4.69;84.07;96570.78;5009513;28;20205;-73
2021/04/03 01:24:11;;;;;;;12.53;4.43;;;;;;;4.65;84.46;96568.59;5006595;28;20209;-75
2021/04/03 01:27:02;;;;;;;10.03;5.10;;;;;;;4.77;84.61;96570.13;5005136;28;20202;-74
2021/04/03 01:30:02;;;;;;;13.27;5.10;;;;;;;4.88;83.74;96566.44;5008410;28;20203;-72
2021/04/03 01:32:33;;;;;;;12.67;4.93;;;;;;;5.02;82.74;96560.81;5003380;28;20203;-72
2021/04/03 01:35:02;;;;;;;13.83;4.93;;;;;;;4.80;82.75;96568.09;5007155;28;20225;-72
2021/04/03 01:37:30;;;;;;;11.30;4.93;;;;;;;4.80;83.41;96562.88;5009150;28;20230;-72
2021/04/03 01:39:58;;;;;;;11.00;5.50;;;;;;;4.78;84.39;96562.16;5009027;28;20256;-73
2021/04/03 01:42:27;;;;;;;10.67;5.23;;;;;;;4.90;85.40;96559.31;5006784;28;20206;-72
2021/04/03 01:44:57;;;;;;;18.43;5.30;;;;;;;4.84;84.17;96554.63;5005472;28;20284;-72
2021/04/03 01:47:26;;;;;;;10.43;4.70;;;;;;;4.83;83.39;96560.78;5007008;28;20680;-74
2021/04/03 01:49:55;;;;;;;14.23;4.90;;;;;;;4.84;86.99;96565.06;5008953;28;20202;-72
2021/04/03 01:52:23;;;;;;;11.83;5.17;;;;;;;4.81;85.78;96564.50;5006532;28;20292;-71
2021/04/03 01:54:50;;;;;;;12.73;5.20;;;;;;;4.81;86.75;96567.09;5001905;28;20295;-73
2021/04/03 01:57:18;;;;;;;14.50;5.53;;;;;;;4.63;85.52;96565.28;5006344;28;20218;-74
2021/04/03 01:59:46;;;;;;;12.50;5.73;;;;;;;4.79;85.66;96560.41;5008673;28;20209;-73
2021/04/03 02:02:14;;;;;;;15.37;5.97;;;;;;;4.64;86.64;96574.78;5007549;28;20205;-73
2021/04/03 02:04:42;;;;;;;16.37;5.37;;;;;;;4.65;85.40;96568.59;5005820;28;20222;-71
2021/04/03 02:07:11;;;;;;;11.83;5.93;;;;;;;4.55;85.35;96565.13;5004657;28;20206;-72
2021/04/03 02:09:37;;;;;;;15.27;5.13;;;;;;;4.46;84.97;96571.16;5005725;28;20202;-74
2021/04/03 02:12:04;;;;;;;19.67;6.20;;;;;;;4.47;87.39;96567.59;5005545;28;20631;-74
2021/04/03 02:14:31;;;;;;;14.73;6.10;;;;;;;4.55;87.19;96568.56;5004589;28;20245;-72
2021/04/03 02:16:59;;;;;;;13.23;5.93;;;;;;;4.60;86.83;96558.53;5007469;28;20202;-74
2021/04/03 02:19:26;;;;;;;14.60;6.67;;;;;;;4.68;86.98;96557.88;5006693;28;20507;-74
2021/04/03 02:21:54;;;;;;;15.20;6.10;;;;;;;4.77;84.55;96546.63;5003187;28;20198;-73
2021/04/03 02:24:21;;;;;;;15.40;6.50;;;;;;;4.82;84.45;96543.50;4999039;28;20226;-73
2021/04/03 02:26:47;;;;;;;11.83;5.80;;;;;;;4.83;84.31;96545.13;5007922;28;20197;-74
2021/04/03 02:29:14;;;;;;;11.97;5.83;;;;;;;4.81;84.89;96542.78;5007911;28;20212;-74
2021/04/03 02:31:40;;;;;;;17.63;6.60;;;;;;;4.92;84.37;96539.09;5004985;28;20198;-74
2021/04/03 02:34:06;;;;;;;12.77;5.80;;;;;;;4.82;84.25;96547.06;5005224;28;20336;-73
2021/04/03 02:36:32;;;;;;;12.70;5.83;;;;;;;4.84;83.63;96546.78;5007026;28;20228;-72
2021/04/03 02:38:59;;;;;;;12.30;6.20;;;;;;;4.98;83.59;96538.56;5008720;28;20208;-72
2021/04/03 02:41:36;;;;;;;12.97;6.00;;;;;;;4.83;83.41;96544.31;5006174;28;20216;-73
2021/04/03 02:44:08;;;;;;;14.10;6.00;;;;;;;4.95;84.15;96545.84;5005160;28;20234;-74
2021/04/03 02:46:38;;;;;;;15.17;6.10;;;;;;;4.78;84.32;96556.94;4999867;28;20198;-74
2021/04/03 02:49:09;;;;;;;17.90;7.17;;;;;;;4.81;83.98;96551.44;5008407;28;20206;-74
2021/04/03 02:51:41;;;;;;;19.60;6.67;;;;;;;4.82;84.26;96551.34;5004936;28;20208;-72
2021/04/03 02:54:08;;;;;;;15.97;6.50;;;;;;;4.70;85.59;96553.34;5003805;28;20222;-71
2021/04/03 02:56:37;;;;;;;19.13;6.60;;;;;;;4.79;85.17;96557.78;5001352;28;20226;-74
2021/04/03 02:59:05;;;;;;;12.70;6.50;;;;;;;4.77;85.41;96552.66;5008121;28;20717;-72
2021/04/03 03:01:33;;;;;;;15.43;6.37;;;;;;;4.89;84.46;96555.03;5005345;28;20203;-75
2021/04/03 03:04:00;;;;;;;13.03;6.33;;;;;;;4.65;85.80;96551.16;5004850;28;20241;-73
2021/04/03 03:06:27;;;;;;;12.87;5.30;;;;;;;4.68;84.76;96550.88;5005536;28;20209;-75
2021/04/03 03:08:54;;;;;;;15.07;6.37;;;;;;;4.66;85.66;96549.34;5004731;28;20203;-74
2021/04/03 03:11:22;;;;;;;13.67;5.73;;;;;;;4.63;84.51;96547.03;5006009;28;20198;-74
2021/04/03 03:13:51;;;;;;;12.83;5.70;;;;;;;4.63;84.39;96547.03;5009532;28;20684;-74
2021/04/03 03:16:20;;;;;;;14.07;6.47;;;;;;;4.69;85.86;96556.94;5005208;28;20225;-74
2021/04/03 03:18:48;;;;;;;15.90;6.10;;;;;;;4.45;86.65;96557.25;5007637;28;20217;-74
2021/04/03 03:21:14;;;;;;;17.07;6.00;;;;;;;4.55;85.89;96559.91;5007420;28;20840;-72
2021/04/03 03:23:41;;;;;;;19.43;6.37;;;;;;;4.54;84.69;96550.44;5008278;28;20660;-72
2021/04/03 03:26:07;;;;;;;18.30;5.70;;;;;;;4.45;85.80;96559.06;5007167;28;20209;-74
2021/04/03 03:28:34;;;;;;;15.40;6.23;;;;;;;4.56;85.66;96564.19;5003981;28;20350;-73
2021/04/03 03:31:02;;;;;;;13.23;5.70;;;;;;;4.50;85.02;96565.50;5005243;28;20297;-72
2021/04/03 03:33:28;;;;;;;14.30;6.57;;;;;;;4.50;85.50;96564.69;5007285;28;20214;-74
2021/04/03 03:35:57;;;;;;;14.03;5.70;;;;;;;4.38;86.59;96563.16;5004591;28;20242;-76
2021/04/03 03:38:23;;;;;;;13.87;5.53;;;;;;;4.36;86.23;96568.47;5004067;28;20209;-77
2021/04/03 03:40:54;;;;;;;11.73;4.80;;;;;;;4.28;86.40;96564.91;5008547;28;20208;-76
2021/04/03 03:43:21;;;;;;;15.90;5.97;;;;;;;4.29;86.43;96556.94;5004374;28;20268;-73
2021/04/03 03:45:47;;;;;;;15.07;5.87;;;;;;;4.44;86.70;96562.59;5004799;28;20222;-75
2021/04/03 03:48:14;;;;;;;11.50;5.70;;;;;;;4.40;87.23;96561.22;5002020;28;20668;-76
2021/04/03 03:50:40;;;;;;;16.53;5.97;;;;;;;4.45;85.91;96565.09;5004540;28;20206;-74
2021/04/03 03:53:07;;;;;;;16.00;5.53;;;;;;;4.37;85.89;96558.91;5007939;28;20206;-78
2021/04/03 03:55:33;;;;;;;14.23;5.83;;;;;;;4.39;85.57;96562.19;5004897;28;20223;-75
2021/04/03 03:57:59;;;;;;;11.10;4.73;;;;;;;4.29;84.72;96556.13;5004040;28;20203;-76
2021/04/03 04:00:25;;;;;;;16.17;5.80;;;;;;;4.19;86.99;96563.06;5004530;28;20217;-76
2021/04/03 04:02:51;;;;;;;12.00;5.87;;;;;;;4.29;85.11;96566.56;5008999;28;20202;-75
2021/04/03 04:05:18;;;;;;;13.50;5.73;;;;;;;4.25;85.34;96562.53;5010559;28;20344;-78
2021/04/03 04:07:44;;;;;;;10.10;5.70;;;;;;;4.30;84.98;96565.56;5006648;28;20209;-74
2021/04/03 04:10:12;;;;;;;13.70;5.73;;;;;;;4.23;84.33;96575.72;5007988;28;20207;-76
2021/04/03 04:12:38;;;;;;;15.70;5.17;;;;;;;4.26;84.68;96572.00;5016072;28;20197;-77
2021/04/03 04:15:05;;;;;;;12.47;5.10;;;;;;;4.21;83.38;96581.19;5011171;28;20233;-76
2021/04/03 04:17:31;;;;;;;12.47;5.30;;;;;;;4.20;85.40;96580.38;5007553;28;20202;-78
2021/04/03 04:19:57;;;;;;;11.57;5.10;;;;;;;4.25;84.71;96575.56;5008747;28;20229;-79
2021/04/03 04:22:24;;;;;;;10.33;5.30;;;;;;;4.30;85.44;96582.06;5007423;28;20234;-75
2021/04/03 04:24:50;;;;;;;14.90;4.80;;;;;;;4.19;84.39;96585.69;5009766;28;20230;-75
2021/04/03 04:27:16;;;;;;;10.60;5.30;;;;;;;4.22;84.23;96582.84;5009899;28;20696;-78
2021/04/03 04:29:42;;;;;;;11.63;5.30;;;;;;;4.23;84.19;96588.75;5009924;28;20233;-74
2021/04/03 04:32:08;;;;;;;14.10;4.77;;;;;;;4.17;84.38;96600.66;5011543;28;20202;-75
2021/04/03 04:34:34;;;;;;;9.20;4.80;;;;;;;4.20;82.95;96598.63;5014215;28;20478;-77
2021/04/03 04:37:00;;;;;;;12.93;5.47;;;;;;;4.29;82.88;96609.09;5007434;28;20277;-76
2021/04/03 04:39:27;;;;;;;11.40;4.67;;;;;;;4.18;83.01;96603.16;5006615;28;20676;-76
2021/04/03 04:41:53;;;;;;;10.73;5.27;;;;;;;4.22;81.97;96598.50;5013226;28;20207;-75
2021/04/03 04:44:19;;;;;;;13.43;5.00;;;;;;;4.23;82.56;96606.19;5009132;28;20268;-74
2021/04/03 04:46:45;;;;;;;10.50;4.53;;;;;;;4.32;83.18;96605.41;5011190;28;20207;-77
2021/04/03 04:49:11;;;;;;;17.10;5.30;;;;;;;4.26;82.51;96605.91;5012131;28;20202;-76
2021/04/03 04:51:37;;;;;;;13.03;5.23;;;;;;;4.37;82.66;96613.69;5011148;28;20198;-73
2021/04/03 04:54:04;;;;;;;11.83;4.83;;;;;;;4.29;82.49;96608.28;5010159;28;21011;-74
2021/04/03 04:56:31;;;;;;;19.33;5.50;;;;;;;4.31;83.51;96612.38;5007478;28;20703;-73
2021/04/03 04:58:57;;;;;;;12.63;5.27;;;;;;;4.40;85.00;96613.41;5009113;28;20202;-78
2021/04/03 05:01:23;;;;;;;11.03;4.90;;;;;;;4.55;83.01;96625.16;5006298;28;20845;-74
2021/04/03 05:03:49;;;;;;;9.73;4.90;;;;;;;4.45;83.01;96626.88;5009872;28;20244;-77
2021/04/03 05:06:15;;;;;;;12.83;5.33;;;;;;;4.54;84.96;96626.09;5012461;28;20202;-74
2021/04/03 05:08:41;;;;;;;11.63;4.80;;;;;;;4.42;83.08;96629.78;5011385;28;20289;-74
2021/04/03 05:11:07;;;;;;;11.93;4.87;;;;;;;4.39;82.09;96628.25;5007089;28;20198;-77
2021/04/03 05:13:34;;;;;;;12.30;5.10;;;;;;;4.51;82.85;96632.41;5005572;28;20259;-77
2021/04/03 05:16:00;;;;;;;11.33;4.57;;;;;;;4.50;82.87;96637.75;5010752;28;20218;-78
2021/04/03 05:18:26;;;;;;;14.73;5.10;;;;;;;4.49;81.51;96639.56;5008349;28;20292;-75
2021/04/03 05:20:52;;;;;;;9.47;4.30;;;;;;;4.43;81.73;96642.69;5008783;28;20198;-73
2021/04/03 05:23:18;;;;;;;9.63;4.33;;;;;;;4.33;80.74;96643.59;5010497;28;20202;-77
2021/04/03 05:25:45;;;;;;;11.23;4.93;;;;;;;4.45;80.87;96639.94;5009729;28;20227;-73
2021/04/03 05:28:11;;;;;;;13.90;5.03;;;;;;;4.54;80.84;96644.38;5010627;28;20203;-78
2021/04/03 05:30:37;;;;;;;9.90;4.57;;;;;;;4.58;81.21;96644.00;5010969;28;20269;-73
2021/04/03 05:33:03;;;;;;;11.90;4.97;;;;;;;4.57;81.91;96642.34;5006861;28;20209;-77
2021/04/03 05:35:29;;;;;;;10.13;4.20;;;;;;;4.65;81.38;96645.09;5006515;28;20692;-73
2021/04/03 05:37:55;;;;;;;10.83;4.37;;;;;;;4.66;82.04;96645.91;5007799;28;20289;-72
2021/04/03 05:40:23;;;;;;;9.67;4.57;;;;;;;4.68;82.24;96650.06;5008874;28;20201;-75
2021/04/03 05:42:51;;;;;;;16.53;5.10;;;;;;;4.77;82.09;96664.91;5008793;28;20668;-73
2021/04/03 05:45:18;;;;;;;10.33;4.50;;;;;;;4.85;81.81;96663.31;5006845;28;20222;-73
2021/04/03 05:47:46;;;;;;;12.13;4.40;;;;;;;5.00;80.43;96650.72;5008212;28;20675;-75
2021/04/03 05:50:12;;;;;;;12.67;4.50;;;;;;;4.95;79.35;96663.34;5006319;28;20273;-76
2021/04/03 05:52:40;;;;;;;12.57;5.37;;;;;;;4.95;80.19;96661.56;5011088;28;20205;-76
2021/04/03 05:55:08;;;;;;;15.60;4.93;;;;;;;4.86;79.17;96664.97;5005204;28;20604;-75
2021/04/03 05:57:35;;;;;;;14.87;5.37;;;;;;;4.95;80.66;96666.78;5008905;28;20257;-74
2021/04/03 06:00:01;;;;;;;10.70;4.80;;;;;;;4.95;79.87;96666.78;5009676;28;20738;-77
2021/04/03 06:02:33;;;;;;;8.93;4.30;;;;;;;4.91;79.50;96675.00;5006726;28;20202;-73
2021/04/03 06:05:00;;;;;;;11.30;4.53;;;;;;;4.79;81.50;96686.50;5007520;28;20214;-77
2021/04/03 06:07:27;;;;;;;8.20;4.43;;;;;;;4.45;81.03;96673.84;5011605;28;20202;-74
2021/04/03 06:09:54;;;;;;;10.57;4.17;;;;;;;4.68;80.99;96678.75;5010296;28;20222;-74
2021/04/03 06:12:37;;;;;;;12.03;4.50;;;;;;;4.60;80.98;96680.38;5011055;28;20198;-75
2021/04/03 06:15:04;;;;;;;17.17;4.67;;;;;;;4.65;79.80;96691.28;5011730;28;20778;-73
2021/04/03 06:17:30;;;;;;;13.40;4.30;;;;;;;4.73;81.88;96688.81;5014138;28;20217;-73
2021/04/03 06:19:56;;;;;;;8.90;4.47;;;;;;;4.95;80.90;96689.44;5014090;28;20210;-75
2021/04/03 06:22:23;;;;;;;13.37;4.63;;;;;;;4.95;79.37;96689.44;5011724;28;20199;-76
2021/04/03 06:25:03;;;;;;;11.80;4.67;;;;;;;5.04;80.20;96686.88;5011862;28;20226;-75
2021/04/03 06:27:29;;;;;;;9.53;4.30;;;;;;;5.09;78.58;96687.31;5008874;28;20767;-75
2021/04/03 06:29:57;;;;;;;10.53;4.27;;;;;;;5.21;78.88;96691.47;5011358;28;20217;-75
2021/04/03 06:32:25;;;;;;;11.60;4.50;;;;;;;5.17;80.04;96700.53;5010350;28;20202;-72
2021/04/03 06:34:53;;;;;;;14.67;4.63;;;;;;;5.10;77.77;96694.16;5011396;28;20866;-75
2021/04/03 06:37:26;;;;;;;10.73;4.50;;;;;;;5.21;79.18;96699.31;5009179;28;20206;-72
2021/04/03 06:39:54;;;;;;;14.83;4.83;;;;;;;5.01;81.70;96701.97;5010706;28;20202;-78
2021/04/03 06:42:45;;;;;;;13.70;4.90;;;;;;;5.25;78.22;96708.53;5009799;28;20206;-78
2021/04/03 06:45:28;;;;;;;7.83;4.20;;;;;;;4.87;81.01;96711.03;5005674;28;20218;-74
2021/04/03 06:47:57;;;;;;;11.20;4.50;;;;;;;5.05;78.36;96705.97;5006268;28;20915;-72
2021/04/03 06:50:25;;;;;;;11.70;4.73;;;;;;;5.08;79.54;96711.78;5004644;28;20283;-77
2021/04/03 06:52:53;;;;;;;11.10;4.53;;;;;;;5.01;81.58;96708.03;5005719;28;20496;-72
2021/04/03 06:55:21;;;;;;;10.83;5.10;;;;;;;4.92;80.66;96710.63;5002865;28;20226;-76
2021/04/03 06:57:48;;;;;;;12.63;4.87;;;;;;;4.97;80.42;96719.69;5003047;28;20206;-72
2021/04/03 07:00:17;;;;;;;9.87;4.07;;;;;;;5.07;79.92;96717.94;4995442;28;21788;-74
2021/04/03 07:02:52;;;;;;;11.33;4.60;;;;;;;4.90;81.07;96715.97;4999043;28;20254;-72
2021/04/03 07:05:20;;;;;;;12.10;4.50;;;;;;;4.89;80.90;96721.31;5002670;28;20221;-77
2021/04/03 07:07:49;;;;;;;11.03;4.70;;;;;;;5.21;81.20;96717.59;5002133;28;20206;-75
2021/04/03 07:10:18;;;;;;;15.10;5.07;;;;;;;5.23;81.02;96725.28;5003512;28;20267;-74
2021/04/03 07:12:44;;;;;;;7.17;3.97;;;;;;;5.28;78.53;96716.09;5006332;28;20214;-73
2021/04/03 07:15:12;;;;;;;9.83;4.90;;;;;;;5.50;78.98;96708.03;5009377;28;20234;-75
2021/04/03 07:17:40;;;;;;;9.83;4.57;;;;;;;5.46;81.32;96712.72;5003568;28;20202;-73
2021/04/03 07:20:10;;;;;;;16.53;5.00;;;;;;;5.40;79.93;96708.97;5004001;28;21080;-76
2021/04/03 07:22:37;;;;;;;11.87;4.53;;;;;;;5.54;80.60;96709.44;5012098;28;20314;-77
2021/04/03 07:25:07;;;;;;;9.23;4.50;;;;;;;5.43;79.72;96709.53;5002500;28;20230;-78
2021/04/03 07:27:37;;;;;;;10.00;4.30;;;;;;;5.45;79.57;96715.47;5003440;28;20215;-77
2021/04/03 07:30:05;;;;;;;7.27;3.73;;;;;;;5.53;82.29;96710.38;5002829;28;20202;-76
2021/04/03 07:32:33;;;;;;;7.43;4.17;;;;;;;5.55;81.92;96721.53;5006754;28;20666;-73
2021/04/03 07:35:00;;;;;;;11.47;4.60;;;;;;;5.49;79.50;96728.09;5003541;28;20265;-77
2021/04/03 07:37:33;;;;;;;10.63;4.43;;;;;;;5.43;79.55;96727.81;5003152;28;20686;-72
2021/04/03 07:39:59;;;;;;;9.67;4.43;;;;;;;5.44;80.80;96726.88;5004546;28;20206;-74
2021/04/03 07:42:37;;;;;;;9.70;4.70;;;;;;;5.47;79.22;96723.97;5008623;28;20217;-74
2021/04/03 07:45:05;;;;;;;8.97;3.23;;;;;;;5.50;79.78;96719.31;5008617;28;20233;-77
2021/04/03 07:47:46;;;;;;;11.90;4.10;;;;;;;5.75;80.92;96720.59;5006641;28;20209;-77
2021/04/03 07:50:12;;;;;;;10.77;4.40;;;;;;;5.97;79.78;96717.75;5009771;28;20251;-73
2021/04/03 07:52:52;;;;;;;10.47;4.60;;;;;;;5.65;80.07;96723.19;5009223;28;20203;-73
2021/04/03 07:55:32;;;;;;;7.77;4.40;;;;;;;5.50;80.72;96726.34;5001931;28;20272;-78
2021/04/03 07:58:30;;;;;;;12.23;4.60;;;;;;;5.79;78.83;96727.22;5011683;28;20206;-72
2021/04/03 08:00:58;;;;;;;9.90;4.93;;;;;;;5.79;81.20;96735.06;4910380;29;20875;-77
2021/04/03 08:03:26;;;;;;;11.70;4.67;;;;;;;5.98;78.37;96735.91;4984803;28;20206;-76
2021/04/03 08:05:58;;;;;;;7.80;4.30;;;;;;;5.87;76.74;96733.44;5007043;28;20587;-76
2021/04/03 08:08:26;;;;;;;9.83;4.63;;;;;;;5.90;77.52;96734.97;5009691;28;20213;-75
2021/04/03 08:11:05;;;;;;;10.43;4.23;;;;;;;5.87;77.97;96738.66;5007355;28;20197;-77
2021/04/03 08:13:33;;;;;;;13.13;4.33;;;;;;;5.81;79.67;96743.63;5009967;28;20208;-77
2021/04/03 08:16:02;;;;;;;12.13;4.57;;;;;;;5.89;78.23;96747.19;5007785;28;20210;-73
2021/04/03 08:18:28;;;;;;;11.23;4.70;;;;;;;5.81;78.34;96741.00;5007596;28;20213;-73
2021/04/03 08:20:55;;;;;;;10.83;4.60;;;;;;;5.88;78.08;96750.78;5008566;28;20641;-74
2021/04/03 08:23:30;;;;;;;13.00;4.57;;;;;;;5.97;78.31;96751.75;5005225;28;20217;-72
2021/04/03 08:25:56;;;;;;;11.83;4.97;;;;;;;6.10;76.38;96756.56;5005388;28;20208;-73
2021/04/03 08:28:23;;;;;;;11.47;4.70;;;;;;;6.40;75.57;96753.81;5007987;28;20213;-77
2021/04/03 08:30:50;;;;;;;10.73;4.20;;;;;;;6.25;76.83;96751.75;5009891;28;20199;-75
2021/04/03 08:33:17;;;;;;;8.10;4.27;;;;;;;6.27;75.38;96755.88;5001034;28;20217;-74
2021/04/03 08:35:46;;;;;;;6.37;3.77;;;;;;;6.23;74.82;96757.13;5003810;28;20226;-73
2021/04/03 08:38:21;;;;;;;10.73;4.27;;;;;;;6.32;71.49;96764.13;5006065;28;20198;-76
2021/04/03 08:40:49;;;;;;;11.00;4.17;;;;;;;6.26;73.03;96763.88;5002312;28;20209;-77
2021/04/03 08:43:26;;;;;;;8.17;3.77;;;;;;;6.28;73.31;96754.91;5003796;28;21205;-77
2021/04/03 08:45:53;;;;;;;7.47;3.83;;;;;;;6.20;72.04;96757.41;5006006;28;20218;-72
2021/04/03 08:48:19;;;;;;;10.10;3.97;;;;;;;6.31;73.67;96761.66;5009881;28;20206;-74
2021/04/03 08:50:48;;;;;;;7.47;4.10;;;;;;;6.47;72.97;96767.19;5005822;28;20209;-73
2021/04/03 08:53:14;;;;;;;8.17;3.83;;;;;;;6.26;73.90;96772.56;5006435;28;20259;-74
2021/04/03 08:55:41;;;;;;;6.80;3.47;;;;;;;6.23;73.42;96778.06;5006940;28;20230;-76
2021/04/03 08:58:08;;;;;;;8.27;3.90;;;;;;;6.18;72.94;96780.25;5008858;28;20664;-75
2021/04/03 09:00:34;;;;;;;10.30;4.10;;;;;;;6.14;75.99;96778.06;5005475;28;20207;-73
2021/04/03 09:03:02;;;;;;;9.63;3.87;;;;;;;6.34;73.21;96780.53;5003062;28;20209;-72
2021/04/03 09:05:28;;;;;;;8.40;3.93;;;;;;;6.21;72.29;96785.22;5006906;28;21161;-72
2021/04/03 09:07:54;;;;;;;10.17;4.17;;;;;;;6.40;71.92;96774.75;5005406;28;20265;-77
2021/04/03 09:10:23;;;;;;;8.03;3.97;;;;;;;6.21;72.84;96782.63;5004262;28;20207;-73
2021/04/03 09:12:50;;;;;;;9.97;3.90;;;;;;;6.32;72.02;96785.06;5010437;28;20210;-77
2021/04/03 09:15:25;;;;;;;6.80;3.40;;;;;;;6.35;69.96;96782.19;5008496;28;20234;-78
2021/04/03 09:17:52;;;;;;;8.70;4.20;;;;;;;6.72;68.94;96789.19;5010133;28;20707;-73
2021/04/03 09:20:21;;;;;;;8.43;3.80;;;;;;;6.84;69.42;96788.06;5009011;28;20202;-76
2021/04/03 09:22:48;;;;;;;8.43;3.60;;;;;;;6.83;69.72;96794.25;5006288;28;20285;-73
2021/04/03 09:25:16;;;;;;;5.87;3.23;;;;;;;6.67;69.26;96795.81;5007661;28;20279;-79
2021/04/03 09:27:42;;;;;;;6.43;3.40;;;;;;;6.54;69.92;96791.81;5007242;28;20201;-72
2021/04/03 09:30:12;;;;;;;7.30;3.43;;;;;;;7.11;69.34;96788.13;5012016;28;20572;-74
2021/04/03 09:32:42;;;;;;;9.40;3.40;;;;;;;7.55;68.36;96793.47;5009483;28;20202;-73
2021/04/03 09:35:09;;;;;;;11.30;3.27;;;;;;;7.73;65.25;96796.97;5008850;28;20218;-75
2021/04/03 09:37:37;;;;;;;5.47;3.07;;;;;;;7.72;63.53;96795.31;5007177;28;20209;-74
2021/04/03 09:40:05;;;;;;;5.93;3.10;;;;;;;7.43;63.02;96799.88;5000814;28;20206;-78
2021/04/03 09:42:31;;;;;;;5.90;3.33;;;;;;;7.47;63.59;96793.38;5007307;28;20198;-73
2021/04/03 09:44:59;;;;;;;7.93;3.30;;;;;;;7.51;64.25;96796.50;5008957;28;20359;-73
2021/04/03 09:47:27;;;;;;;7.57;3.20;;;;;;;7.13;61.78;96787.97;5003946;28;20233;-77
2021/04/03 09:49:53;;;;;;;7.33;3.33;;;;;;;7.25;65.51;96794.72;5004529;28;20229;-73
2021/04/03 09:52:19;;;;;;;7.73;3.33;;;;;;;7.94;65.19;96800.16;5006318;28;20256;-75
2021/04/03 09:54:47;;;;;;;6.33;3.50;;;;;;;8.39;62.27;96785.22;5004192;28;20249;-78
2021/04/03 09:57:15;;;;;;;8.60;3.70;;;;;;;8.71;62.10;96792.41;5003012;28;20226;-76
2021/04/03 09:59:42;;;;;;;7.57;3.33;;;;;;;8.76;60.05;96784.88;5004903;28;20203;-78
2021/04/03 10:02:10;;;;;;;6.57;3.17;;;;;;;8.33;61.07;96796.34;5009526;28;21259;-74
2021/04/03 10:04:37;;;;;;;9.43;3.27;;;;;;;8.10;62.35;96800.34;5005979;28;20353;-72
2021/04/03 10:07:04;;;;;;;6.80;3.10;;;;;;;8.22;63.07;96799.16;5003447;28;20197;-76
2021/04/03 10:09:30;;;;;;;6.33;2.93;;;;;;;7.80;60.75;96798.03;5007163;28;20212;-74
2021/04/03 10:11:58;;;;;;;7.23;2.93;;;;;;;8.02;59.92;96795.00;5010726;28;20248;-73
2021/04/03 10:14:25;;;;;;;5.53;2.53;;;;;;;8.67;56.91;96795.50;5010940;28;20279;-74
2021/04/03 10:16:51;;;;;;;5.80;2.97;;;;;;;8.79;55.53;96795.09;5007892;28;20217;-72
2021/04/03 10:19:17;;;;;;;6.50;3.07;;;;;;;9.51;55.05;96785.88;5007067;28;20206;-76
2021/04/03 10:21:43;;;;;;;4.63;2.47;;;;;;;9.15;52.65;96781.72;5003287;28;20198;-73
2021/04/03 10:24:10;;;;;;;6.90;3.03;;;;;;;8.98;55.27;96792.28;5004450;28;20226;-77
2021/04/03 10:26:36;;;;;;;8.67;2.63;;;;;;;8.48;51.32;96796.47;5003566;28;20199;-77
2021/04/03 10:29:04;;;;;;;4.30;2.53;;;;;;;8.32;55.79;96794.69;5004911;28;20202;-75
2021/04/03 10:31:30;;;;;;;4.33;2.30;;;;;;;8.69;54.64;96794.38;5008759;28;20203;-73
2021/04/03 10:33:56;;;;;;;7.40;2.80;;;;;;;8.71;55.78;96789.78;5003036;28;20500;-74
2021/04/03 10:36:22;;;;;;;6.33;2.60;;;;;;;8.66;55.55;96792.03;4998221;28;20229;-73
2021/04/03 10:38:48;;;;;;;5.03;2.70;;;;;;;9.33;54.25;96784.28;4995618;28;21366;-77
2021/04/03 10:41:15;;;;;;;5.07;2.40;;;;;;;9.95;51.69;96785.56;5000751;28;20201;-75
2021/04/03 10:43:41;;;;;;;7.33;2.50;;;;;;;9.68;51.71;96784.13;5004629;28;20226;-73
2021/04/03 10:46:09;;;;;;;4.70;2.47;;;;;;;8.94;57.64;96798.00;5003326;28;20287;-77
2021/04/03 10:48:35;;;;;;;5.93;2.90;;;;;;;8.75;55.54;96801.63;5005369;28;20214;-75
2021/04/03 10:51:01;;;;;;;6.90;2.50;;;;;;;8.58;54.79;96802.47;4997934;28;20191;-74
2021/04/03 10:53:28;;;;;;;9.47;2.40;;;;;;;8.02;54.80;96810.75;5003373;28;20206;-74
2021/04/03 10:55:54;;;;;;;6.43;2.60;;;;;;;8.30;55.33;96815.00;5000983;28;20218;-72
2021/04/03 10:58:20;;;;;;;5.23;2.57;;;;;;;8.40;54.06;96813.13;4999992;28;20201;-73
2021/04/03 11:00:46;;;;;;;3.73;1.90;;;;;;;8.02;55.52;96813.38;5000159;28;20225;-77
2021/04/03 11:03:13;;;;;;;3.73;2.40;;;;;;;7.80;57.30;96808.50;5003781;28;20202;-73
2021/04/03 11:05:39;;;;;;;4.47;2.40;;;;;;;8.37;58.82;96808.19;5000974;28;20233;-74
2021/04/03 11:08:06;;;;;;;6.37;2.50;;;;;;;8.36;59.81;96809.97;4996283;28;20214;-72
2021/04/03 11:10:32;;;;;;;8.47;2.70;;;;;;;8.66;58.19;96804.34;4995556;28;20202;-72
2021/04/03 11:12:58;;;;;;;4.90;2.00;;;;;;;8.63;52.86;96805.47;4995676;28;20216;-72
2021/04/03 11:15:25;;;;;;;4.37;1.93;;;;;;;9.07;54.61;96803.69;5004715;28;20226;-73
2021/04/03 11:17:52;;;;;;;4.13;2.40;;;;;;;8.92;53.77;96800.75;5006921;28;20260;-72
2021/04/03 11:20:19;;;;;;;5.37;2.10;;;;;;;8.80;52.52;96802.00;5008455;28;20208;-73
2021/04/03 11:22:45;;;;;;;4.93;2.00;;;;;;;9.06;52.89;96802.03;5005306;28;20679;-74
2021/04/03 11:25:12;;;;;;;7.87;2.47;;;;;;;8.48;54.76;96806.97;5005059;28;20226;-72
2021/04/03 11:27:38;;;;;;;5.33;2.80;;;;;;;8.12;54.73;96814.97;5004167;28;20210;-72
2021/04/03 11:30:15;;;;;;;5.97;2.00;;;;;;;8.23;54.82;96804.25;5006366;28;20214;-72
2021/04/03 11:32:43;;;;;;;4.40;2.13;;;;;;;8.63;53.96;96804.63;5003906;28;20206;-71
2021/04/03 11:35:10;;;;;;;8.47;2.30;;;;;;;8.90;54.91;96797.47;4998241;28;20641;-73
2021/04/03 11:37:37;;;;;;;6.73;2.33;;;;;;;8.81;52.15;96803.66;4998943;28;20202;-72
2021/04/03 11:40:05;;;;;;;5.93;2.00;;;;;;;8.59;51.72;96805.91;5006128;28;20209;-72
2021/04/03 11:42:31;;;;;;;5.67;2.30;;;;;;;8.87;52.37;96797.81;5009255;28;20213;-72